createdAt,value
2022-07-26T00:01:44.104Z,21.08
2022-07-26T00:04:41.016Z,21.13
2022-07-26T00:07:37.923Z,20.97
2022-07-26T00:10:35.049Z,21.04
2022-07-26T00:13:32.390Z,20.54
2022-07-26T00:16:29.715Z,20.63
2022-07-26T00:19:26.597Z,20.85
2022-07-26T00:22:35.501Z,20.54
2022-07-26T00:25:32.567Z,20.47
2022-07-26T00:28:29.566Z,20.31
2022-07-26T00:31:26.492Z,20.06
2022-07-26T00:34:23.476Z,19.97
2022-07-26T00:37:21.130Z,19.95
2022-07-26T00:40:18.362Z,19.84
2022-07-26T00:43:15.212Z,19.76
2022-07-26T00:46:12.092Z,19.91
2022-07-26T00:49:09.881Z,19.66
2022-07-26T00:52:08.783Z,19.85
2022-07-26T00:55:07.636Z,19.74
2022-07-26T00:58:06.356Z,19.72
2022-07-26T01:01:03.267Z,19.36
2022-07-26T01:04:00.600Z,19.23
2022-07-26T01:06:57.803Z,19.36
2022-07-26T01:09:54.717Z,19.17
2022-07-26T01:12:51.951Z,19.04
2022-07-26T01:15:49.494Z,19.14
2022-07-26T01:18:46.376Z,19.00
2022-07-26T01:21:44.041Z,19.10
2022-07-26T01:24:41.354Z,18.93
2022-07-26T01:27:39.512Z,18.85
2022-07-26T01:30:36.625Z,18.74
2022-07-26T01:33:35.156Z,18.94
2022-07-26T01:36:32.028Z,18.78
2022-07-26T01:39:29.292Z,18.62
2022-07-26T01:42:26.170Z,18.41
2022-07-26T01:45:23.128Z,18.83
2022-07-26T01:48:20.006Z,18.66
2022-07-26T01:51:16.898Z,18.63
2022-07-26T01:54:13.817Z,18.32
2022-07-26T01:57:11.425Z,18.26
2022-07-26T02:00:09.123Z,18.26
2022-07-26T02:03:06.133Z,18.21
2022-07-26T02:06:03.309Z,18.35
2022-07-26T02:09:00.633Z,18.01
2022-07-26T02:11:58.687Z,18.11
2022-07-26T02:14:55.789Z,17.99
2022-07-26T02:17:52.746Z,17.81
2022-07-26T02:20:49.578Z,17.88
2022-07-26T02:23:46.414Z,18.05
2022-07-26T02:26:43.272Z,17.57
2022-07-26T02:29:40.721Z,17.84
2022-07-26T02:32:37.568Z,17.60
2022-07-26T02:35:34.955Z,17.47
2022-07-26T02:38:31.808Z,17.41
2022-07-26T02:41:28.686Z,17.23
2022-07-26T02:44:26.749Z,17.10
2022-07-26T02:47:23.853Z,17.31
2022-07-26T02:50:25.079Z,17.26
2022-07-26T02:53:21.934Z,17.42
2022-07-26T02:56:18.771Z,17.26
2022-07-26T02:59:15.626Z,17.07
2022-07-26T03:02:12.469Z,17.30
2022-07-26T03:05:09.950Z,16.87
2022-07-26T03:08:07.517Z,16.86
2022-07-26T03:11:08.992Z,16.90
2022-07-26T03:14:09.012Z,16.74
2022-07-26T03:17:06.202Z,16.73
2022-07-26T03:20:04.503Z,16.63
2022-07-26T03:23:01.386Z,16.62
2022-07-26T03:25:58.219Z,16.62
2022-07-26T03:28:55.929Z,16.79
2022-07-26T03:31:52.802Z,16.50
2022-07-26T03:34:49.753Z,16.51
2022-07-26T03:37:46.818Z,16.18
2022-07-26T03:40:43.850Z,16.49
2022-07-26T03:43:41.445Z,16.18
2022-07-26T03:46:38.326Z,16.02
2022-07-26T03:49:35.623Z,15.98
2022-07-26T03:52:32.638Z,15.96
2022-07-26T03:55:47.907Z,15.98
2022-07-26T03:58:44.806Z,16.00
2022-07-26T04:01:42.632Z,15.92
2022-07-26T04:04:39.543Z,15.90
2022-07-26T04:07:43.343Z,16.05
2022-07-26T04:10:55.442Z,16.32
2022-07-26T04:13:52.367Z,16.36
2022-07-26T04:16:49.245Z,16.01
2022-07-26T04:19:46.136Z,16.11
2022-07-26T04:22:43.143Z,16.16
2022-07-26T04:25:41.804Z,16.01
2022-07-26T04:28:38.785Z,16.13
2022-07-26T04:31:36.379Z,16.19
2022-07-26T04:34:33.499Z,16.20
2022-07-26T04:37:32.895Z,16.14
2022-07-26T04:40:33.586Z,15.95
2022-07-26T04:43:30.443Z,16.42
2022-07-26T04:46:27.411Z,16.57
2022-07-26T04:49:24.368Z,16.54
2022-07-26T04:52:21.218Z,16.48
2022-07-26T04:55:18.988Z,16.53
2022-07-26T04:58:15.930Z,16.50
2022-07-26T05:01:16.000Z,16.45
2022-07-26T05:04:13.125Z,16.63
2022-07-26T05:07:10.424Z,16.53
2022-07-26T05:10:08.194Z,16.65
2022-07-26T05:13:06.353Z,16.78
2022-07-26T05:16:03.255Z,16.95
2022-07-26T05:19:08.767Z,16.63
2022-07-26T05:22:05.623Z,16.68
2022-07-26T05:25:04.060Z,16.76
2022-07-26T05:28:01.018Z,16.91
2022-07-26T05:30:57.970Z,16.84
2022-07-26T05:33:55.309Z,16.92
2022-07-26T05:36:52.199Z,17.35
2022-07-26T05:39:49.027Z,17.66
2022-07-26T05:42:45.891Z,17.91
2022-07-26T05:45:42.876Z,17.87
2022-07-26T05:48:40.381Z,18.04
2022-07-26T05:51:37.367Z,18.31
2022-07-26T05:54:34.333Z,18.28
2022-07-26T05:57:31.250Z,18.29
2022-07-26T06:00:28.137Z,18.25
2022-07-26T06:03:25.875Z,18.16
2022-07-26T06:06:22.735Z,18.07
2022-07-26T06:09:19.615Z,18.09
2022-07-26T06:12:17.984Z,18.07
2022-07-26T06:15:15.960Z,18.26
2022-07-26T06:18:13.638Z,18.52
2022-07-26T06:21:10.573Z,18.54
2022-07-26T06:24:07.832Z,18.75
2022-07-26T06:27:05.706Z,18.82
2022-07-26T06:30:02.820Z,18.82
2022-07-26T06:32:59.777Z,18.68
2022-07-26T06:35:56.813Z,18.48
2022-07-26T06:38:54.980Z,18.83
2022-07-26T06:41:51.937Z,18.84
2022-07-26T06:44:48.800Z,18.81
2022-07-26T06:47:45.673Z,18.79
2022-07-26T06:50:42.563Z,18.72
2022-07-26T06:53:39.471Z,18.73
2022-07-26T06:56:36.330Z,18.79
2022-07-26T06:59:33.203Z,18.85
2022-07-26T07:02:30.088Z,18.67
2022-07-26T07:05:27.004Z,18.63
2022-07-26T07:08:28.114Z,18.67
2022-07-26T07:11:25.582Z,18.82
2022-07-26T07:14:22.897Z,18.82
2022-07-26T07:17:21.066Z,19.00
2022-07-26T07:20:17.977Z,19.00
2022-07-26T07:23:14.939Z,19.07
2022-07-26T07:26:11.785Z,19.30
2022-07-26T07:29:12.644Z,19.47
2022-07-26T07:32:15.966Z,19.52
2022-07-26T07:35:15.635Z,19.28
2022-07-26T07:38:12.480Z,19.32
2022-07-26T07:41:09.393Z,19.36
2022-07-26T07:44:06.635Z,19.44
2022-07-26T07:47:04.121Z,19.48
2022-07-26T07:50:01.372Z,19.47
2022-07-26T07:52:59.313Z,19.58
2022-07-26T07:55:58.961Z,19.71
2022-07-26T07:58:55.794Z,19.77
2022-07-26T08:01:52.767Z,20.08
2022-07-26T08:04:49.726Z,19.96
2022-07-26T08:07:47.129Z,20.07
2022-07-26T08:10:51.785Z,20.23
2022-07-26T08:13:49.358Z,20.44
2022-07-26T08:16:46.483Z,20.68
2022-07-26T08:19:43.636Z,21.17
2022-07-26T08:22:40.631Z,21.22
2022-07-26T08:25:42.543Z,21.41
2022-07-26T08:28:48.222Z,21.29
2022-07-26T08:31:45.839Z,21.52
2022-07-26T08:34:42.737Z,21.96
2022-07-26T08:37:39.716Z,21.41
2022-07-26T08:40:36.860Z,22.11
2022-07-26T08:43:48.919Z,22.11
2022-07-26T08:46:49.373Z,22.22
2022-07-26T08:49:47.009Z,22.47
2022-07-26T08:52:44.512Z,22.03
2022-07-26T08:58:58.181Z,23.05
2022-07-26T09:02:06.652Z,22.85
2022-07-26T09:05:04.895Z,23.34
2022-07-26T09:08:23.820Z,23.24
2022-07-26T09:11:23.548Z,23.52
2022-07-26T09:14:20.471Z,23.39
2022-07-26T09:17:20.759Z,23.61
2022-07-26T09:20:27.975Z,24.86
2022-07-26T09:23:25.475Z,24.43
2022-07-26T09:26:22.368Z,23.49
2022-07-26T09:29:19.239Z,23.84
2022-07-26T09:32:23.074Z,24.65
2022-07-26T09:35:50.088Z,24.51
2022-07-26T09:38:51.304Z,23.28
2022-07-26T09:42:04.736Z,22.79
2022-07-26T09:45:17.061Z,22.77
2022-07-26T09:48:13.932Z,23.15
2022-07-26T09:51:11.534Z,24.13
2022-07-26T09:54:10.501Z,24.23
2022-07-26T09:57:07.832Z,24.47
2022-07-26T10:00:25.847Z,25.02
2022-07-26T10:03:22.905Z,24.34
2022-07-26T10:06:19.740Z,25.11
2022-07-26T10:09:18.553Z,25.20
2022-07-26T10:12:17.430Z,25.47
2022-07-26T10:15:35.778Z,25.61
2022-07-26T10:18:38.978Z,25.88
2022-07-26T10:21:36.178Z,25.17
2022-07-26T10:24:34.591Z,25.72
2022-07-26T10:27:41.530Z,26.17
2022-07-26T10:30:38.394Z,26.37
2022-07-26T10:33:47.041Z,26.61
2022-07-26T10:36:43.895Z,26.59
2022-07-26T10:39:40.765Z,26.64
2022-07-26T10:42:45.308Z,25.77
2022-07-26T10:45:43.115Z,26.62
2022-07-26T10:49:06.622Z,26.56
2022-07-26T10:52:17.997Z,26.77
2022-07-26T10:55:14.956Z,26.15
2022-07-26T10:58:11.895Z,26.76
2022-07-26T11:01:08.800Z,26.57
2022-07-26T11:04:20.365Z,25.41
2022-07-26T11:07:17.226Z,25.65
2022-07-26T11:10:14.279Z,26.26
2022-07-26T11:13:19.423Z,25.55
2022-07-26T11:16:16.316Z,24.72
2022-07-26T11:19:24.824Z,25.00
2022-07-26T11:22:22.962Z,24.71
2022-07-26T11:25:22.358Z,25.93
2022-07-26T11:28:21.293Z,26.14
2022-07-26T11:31:24.405Z,26.80
2022-07-26T11:34:41.189Z,26.15
2022-07-26T11:37:38.036Z,27.10
2022-07-26T11:40:48.092Z,27.69
2022-07-26T11:43:45.026Z,27.54
2022-07-26T11:46:47.624Z,26.49
2022-07-26T11:50:09.762Z,25.24
2022-07-26T11:53:01.602Z,25.16
2022-07-26T11:56:17.289Z,24.50
2022-07-26T11:59:14.529Z,24.79
2022-07-26T12:02:12.523Z,25.88
2022-07-26T12:05:27.703Z,26.67
2022-07-26T12:08:24.770Z,25.76
2022-07-26T12:11:23.998Z,25.67
2022-07-26T12:14:32.866Z,24.77
2022-07-26T12:17:35.213Z,25.13
2022-07-26T12:20:39.006Z,24.71
2022-07-26T12:23:50.829Z,23.91
2022-07-26T12:27:09.081Z,23.71
2022-07-26T12:30:08.506Z,23.75
2022-07-26T12:33:05.390Z,23.92
2022-07-26T12:36:27.111Z,24.59
2022-07-26T12:39:25.907Z,24.93
2022-07-26T12:42:33.448Z,24.95
2022-07-26T12:45:34.067Z,25.39
2022-07-26T12:48:30.964Z,25.23
2022-07-26T12:51:28.875Z,24.95
2022-07-26T12:54:29.493Z,23.95
2022-07-26T12:57:27.304Z,24.05
2022-07-26T13:00:24.482Z,23.61
2022-07-26T13:03:21.343Z,23.58
2022-07-26T13:06:18.204Z,24.55
2022-07-26T13:09:16.859Z,23.89
2022-07-26T13:12:16.473Z,23.65
2022-07-26T13:15:13.330Z,24.32
2022-07-26T13:18:10.233Z,24.64
2022-07-26T13:21:07.420Z,23.98
2022-07-26T13:24:06.815Z,24.85
2022-07-26T13:27:07.569Z,24.25
2022-07-26T13:30:05.336Z,23.64
2022-07-26T13:33:02.171Z,22.87
2022-07-26T13:35:59.024Z,23.16
2022-07-26T13:38:55.917Z,23.39
2022-07-26T13:41:53.601Z,23.73
2022-07-26T13:44:50.448Z,24.03
2022-07-26T13:47:47.289Z,24.76
2022-07-26T13:50:44.152Z,24.52
2022-07-26T13:53:52.324Z,24.10
2022-07-26T13:56:53.321Z,23.21
2022-07-26T13:59:50.174Z,24.89
2022-07-26T14:02:47.065Z,24.55
2022-07-26T14:05:43.972Z,23.78
2022-07-26T14:08:40.925Z,24.13
2022-07-26T14:11:38.829Z,23.47
2022-07-26T14:14:35.701Z,23.57
2022-07-26T14:17:32.549Z,24.20
2022-07-26T14:20:29.544Z,23.85
2022-07-26T14:23:26.383Z,23.82
2022-07-26T14:26:23.914Z,23.76
2022-07-26T14:29:20.783Z,23.67
2022-07-26T14:32:21.440Z,23.35
2022-07-26T14:35:18.886Z,23.85
2022-07-26T14:38:22.396Z,23.28
2022-07-26T14:41:21.578Z,22.96
2022-07-26T14:44:18.476Z,22.85
2022-07-26T14:47:15.343Z,22.80
2022-07-26T14:50:14.577Z,23.28
2022-07-26T14:53:13.834Z,23.19
2022-07-26T14:56:10.782Z,24.07
2022-07-26T14:59:07.965Z,23.22
2022-07-26T15:02:06.066Z,23.26
2022-07-26T15:05:03.374Z,23.51
2022-07-26T15:08:05.567Z,23.73
2022-07-26T15:11:05.426Z,23.43
2022-07-26T15:14:05.883Z,23.50
2022-07-26T15:17:03.404Z,22.41
2022-07-26T15:20:00.336Z,23.42
2022-07-26T15:22:57.263Z,22.54
2022-07-26T15:25:54.161Z,22.75
2022-07-26T15:28:51.015Z,22.72
2022-07-26T15:31:49.317Z,22.68
2022-07-26T15:34:46.234Z,23.48
2022-07-26T15:37:48.000Z,22.81
2022-07-26T15:40:44.878Z,23.06
2022-07-26T15:43:44.376Z,22.79
2022-07-26T15:46:47.970Z,23.56
2022-07-26T15:49:45.657Z,23.27
2022-07-26T15:52:46.541Z,23.25
2022-07-26T15:55:43.567Z,23.04
2022-07-26T15:58:40.469Z,23.47
2022-07-26T16:01:38.258Z,23.60
2022-07-26T16:04:35.156Z,22.95
2022-07-26T16:07:32.555Z,23.25
2022-07-26T16:10:29.398Z,23.33
2022-07-26T16:13:26.239Z,23.07
2022-07-26T16:16:23.685Z,23.30
2022-07-26T16:19:20.575Z,23.41
2022-07-26T16:22:17.727Z,23.27
2022-07-26T16:25:16.038Z,23.28
2022-07-26T16:28:12.900Z,22.68
2022-07-26T16:31:09.944Z,23.36
2022-07-26T16:34:07.594Z,22.80
2022-07-26T16:37:05.435Z,23.20
2022-07-26T16:40:02.315Z,22.58
2022-07-26T16:42:59.433Z,22.84
2022-07-26T16:45:56.283Z,22.80
2022-07-26T16:48:53.166Z,22.20
2022-07-26T16:51:50.111Z,22.27
2022-07-26T16:54:46.973Z,22.49
2022-07-26T16:57:43.874Z,22.37
2022-07-26T17:00:40.816Z,22.20
2022-07-26T17:03:38.069Z,22.30
2022-07-26T17:06:34.936Z,22.06
2022-07-26T17:09:31.849Z,22.24
2022-07-26T17:12:28.677Z,21.89
2022-07-26T17:15:25.624Z,21.80
2022-07-26T17:18:22.510Z,22.12
2022-07-26T17:21:19.435Z,21.97
2022-07-26T17:24:17.015Z,22.00
2022-07-26T17:27:15.302Z,21.50
2022-07-26T17:30:13.192Z,21.35
2022-07-26T17:33:10.616Z,21.64
2022-07-26T17:36:22.046Z,21.72
2022-07-26T17:39:18.918Z,21.65
2022-07-26T17:42:18.365Z,21.70
2022-07-26T17:45:15.363Z,21.60
2022-07-26T17:48:12.223Z,21.47
2022-07-26T17:51:09.127Z,21.45
2022-07-26T17:54:06.389Z,21.14
2022-07-26T17:57:07.976Z,21.17
2022-07-26T18:00:09.752Z,21.04
2022-07-26T18:03:06.604Z,20.78
2022-07-26T18:06:03.654Z,20.87
2022-07-26T18:09:01.109Z,20.89
2022-07-26T18:11:57.990Z,21.04
2022-07-26T18:14:54.851Z,20.81
2022-07-26T18:17:51.710Z,20.22
2022-07-26T18:20:49.117Z,20.26
2022-07-26T18:24:00.621Z,20.48
2022-07-26T18:27:02.780Z,20.67
2022-07-26T18:30:00.441Z,20.60
2022-07-26T18:32:57.367Z,20.68
2022-07-26T18:35:54.276Z,20.68
2022-07-26T18:38:51.455Z,20.41
2022-07-26T18:41:48.599Z,20.25
2022-07-26T18:44:45.502Z,20.23
2022-07-26T18:47:42.536Z,20.22
2022-07-26T18:50:40.746Z,20.18
2022-07-26T18:53:40.227Z,19.99
2022-07-26T18:56:38.031Z,19.64
2022-07-26T18:59:34.961Z,19.64
2022-07-26T19:02:33.697Z,19.48
2022-07-26T19:05:34.386Z,19.56
2022-07-26T19:08:32.576Z,19.63
2022-07-26T19:11:30.246Z,19.56
2022-07-26T19:14:27.300Z,19.49
2022-07-26T19:17:24.161Z,19.60
2022-07-26T19:20:21.067Z,19.50
2022-07-26T19:23:17.986Z,19.36
2022-07-26T19:26:14.850Z,19.38
2022-07-26T19:29:12.208Z,19.34
2022-07-26T19:32:09.549Z,19.28
2022-07-26T19:35:07.863Z,19.28
2022-07-26T19:38:04.958Z,19.32
2022-07-26T19:41:01.965Z,19.34
2022-07-26T19:43:58.826Z,19.25
2022-07-26T19:46:57.741Z,19.09
2022-07-26T19:49:54.963Z,19.01
2022-07-26T19:52:51.843Z,18.96
2022-07-26T19:55:48.691Z,18.92
2022-07-26T19:58:46.201Z,18.75
2022-07-26T20:01:43.575Z,18.68
2022-07-26T20:04:45.456Z,18.60
2022-07-26T20:07:43.417Z,18.64
2022-07-26T20:10:40.583Z,18.65
2022-07-26T20:13:38.158Z,18.62
2022-07-26T20:16:35.091Z,18.61
2022-07-26T20:19:31.964Z,18.48
2022-07-26T20:22:29.376Z,18.42
2022-07-26T20:25:26.294Z,18.44
2022-07-26T20:28:23.131Z,18.45
2022-07-26T20:31:20.049Z,18.31
2022-07-26T20:34:17.035Z,18.42
2022-07-26T20:37:14.048Z,18.45
2022-07-26T20:40:13.002Z,18.29
2022-07-26T20:43:12.600Z,18.35
2022-07-26T20:46:11.161Z,18.32
2022-07-26T20:49:09.723Z,18.19
2022-07-26T20:52:07.044Z,17.99
2022-07-26T20:55:04.843Z,18.16
2022-07-26T20:58:01.722Z,18.07
2022-07-26T21:00:58.957Z,18.22
2022-07-26T21:03:56.006Z,17.96
2022-07-26T21:06:53.120Z,18.11
2022-07-26T21:09:49.986Z,18.10
2022-07-26T21:12:49.137Z,18.03
2022-07-26T21:15:46.027Z,17.99
2022-07-26T21:18:42.945Z,17.98
2022-07-26T21:21:41.378Z,18.08
2022-07-26T21:24:38.322Z,17.97
2022-07-26T21:27:35.205Z,17.99
2022-07-26T21:30:32.045Z,17.72
2022-07-26T21:33:28.900Z,17.76
2022-07-26T21:36:25.797Z,17.84
2022-07-26T21:39:22.633Z,17.87
2022-07-26T21:42:19.678Z,17.79
2022-07-26T21:45:16.673Z,17.95
2022-07-26T21:48:13.586Z,17.93
2022-07-26T21:51:10.506Z,18.08
2022-07-26T21:54:08.163Z,17.90
2022-07-26T21:57:05.556Z,17.83
2022-07-26T22:00:02.662Z,17.88
2022-07-26T22:02:59.586Z,17.74
2022-07-26T22:05:56.519Z,17.90
2022-07-26T22:08:53.349Z,17.77
2022-07-26T22:11:50.221Z,17.77
2022-07-26T22:14:47.146Z,17.86
2022-07-26T22:17:44.081Z,17.68
2022-07-26T22:20:42.007Z,17.97
2022-07-26T22:23:38.954Z,18.03
2022-07-26T22:26:36.214Z,17.99
2022-07-26T22:29:38.940Z,17.83
2022-07-26T22:32:37.193Z,17.70
2022-07-26T22:35:36.228Z,17.69
2022-07-26T22:38:33.249Z,17.90
2022-07-26T22:41:31.734Z,17.62
2022-07-26T22:44:29.578Z,17.92
2022-07-26T22:47:26.481Z,17.81
2022-07-26T22:50:24.777Z,17.78
2022-07-26T22:53:21.937Z,17.71
2022-07-26T22:56:19.862Z,17.67
2022-07-26T22:59:16.942Z,17.61
2022-07-26T23:02:13.820Z,17.58
2022-07-26T23:05:11.416Z,17.67
2022-07-26T23:08:36.267Z,17.62
2022-07-26T23:11:25.145Z,17.70
2022-07-26T23:14:22.003Z,17.60
2022-07-26T23:17:19.552Z,17.71
2022-07-26T23:20:16.406Z,17.49
2022-07-26T23:23:13.267Z,17.53
2022-07-26T23:26:10.110Z,17.76
2022-07-26T23:29:08.323Z,17.42
2022-07-26T23:32:06.136Z,17.60
2022-07-26T23:35:05.837Z,17.50
2022-07-26T23:38:02.703Z,17.28
2022-07-26T23:40:59.711Z,17.42
2022-07-26T23:43:57.144Z,17.54
2022-07-26T23:46:54.059Z,16.97
2022-07-26T23:49:50.969Z,17.06
2022-07-26T23:52:47.827Z,16.91
2022-07-26T23:55:44.738Z,17.30
2022-07-26T23:58:46.396Z,17.44
